Wagontown, Pennsylvania
Current Conditions -  °F | °C
As of 9:35 PM on Tuesday 21 Oct 2014 (Local Time) from KMQS Reporting Station
Broken Clouds Broken Clouds  
Wind Chill: 55°   Ceiling: 7500
Heat Index: 55°   Visibility: 10mi
Dew Point: 48°   Wind: 6mph
Humidity: 77%   Direction: 360°N
Pressure: 29.89"   Gusts: NA
Location:  40.01°N, 75.84°W
Report Text: KMQS 220135Z AUTO 36005KT 10SM FEW042 SCT060 BKN075 13/09 A2989 RMK AO2
Loading
Personal Weather Stations






























Interactive Weather Map
Tropical Storm Tracking
New forecast layout! Learn more

10-Day Weather Forecast

Advertisements
Track Severe Weather on mobile